createdAt,value
2018-01-22T00:00:28.873Z,8.57
2018-01-22T00:02:56.663Z,8.50
2018-01-22T00:05:24.416Z,8.00
2018-01-22T00:07:52.241Z,7.00
2018-01-22T00:10:20.040Z,7.30
2018-01-22T00:12:47.784Z,7.40
2018-01-22T00:15:15.620Z,6.20
2018-01-22T00:17:44.215Z,6.10
2018-01-22T00:20:11.918Z,7.17
2018-01-22T00:22:39.714Z,7.40
2018-01-22T00:25:08.306Z,8.80
2018-01-22T00:27:36.083Z,7.63
2018-01-22T00:30:03.919Z,7.60
2018-01-22T00:32:32.535Z,8.00
2018-01-22T00:35:00.251Z,7.30
2018-01-22T00:37:27.902Z,7.20
2018-01-22T00:39:55.551Z,6.60
2018-01-22T00:42:23.221Z,7.63
2018-01-22T00:44:51.660Z,8.67
2018-01-22T00:47:20.133Z,7.17
2018-01-22T00:49:47.763Z,7.37
2018-01-22T00:52:15.393Z,7.10
2018-01-22T00:54:43.117Z,7.43
2018-01-22T00:57:10.768Z,6.17
2018-01-22T00:59:38.643Z,7.30
2018-01-22T01:02:06.318Z,6.47
2018-01-22T01:04:34.725Z,5.63
2018-01-22T01:07:02.419Z,6.13
2018-01-22T01:09:30.057Z,5.83
2018-01-22T01:11:57.776Z,6.33
2018-01-22T01:14:25.455Z,6.87
2018-01-22T01:16:53.097Z,7.57
2018-01-22T01:19:20.771Z,7.20
2018-01-22T01:21:49.171Z,5.63
2018-01-22T01:24:16.832Z,6.10
2018-01-22T01:26:44.460Z,5.73
2018-01-22T01:29:12.138Z,5.80
2018-01-22T01:31:40.536Z,5.83
2018-01-22T01:34:08.191Z,5.90
2018-01-22T01:36:35.866Z,6.03
2018-01-22T01:39:03.527Z,6.90
2018-01-22T01:41:31.143Z,6.70
2018-01-22T01:43:58.796Z,6.80
2018-01-22T01:46:26.411Z,6.37
2018-01-22T01:49:03.941Z,6.20
2018-01-22T01:51:32.361Z,5.97
2018-01-22T01:54:00.085Z,6.07
2018-01-22T01:56:27.741Z,5.90
2018-01-22T01:58:55.401Z,5.53
2018-01-22T02:01:23.161Z,6.97
2018-01-22T02:03:50.791Z,5.33
2018-01-22T02:06:18.417Z,5.63
2018-01-22T02:08:46.158Z,5.07
2018-01-22T02:11:13.782Z,6.10
2018-01-22T02:13:41.403Z,5.03
2018-01-22T02:16:09.113Z,4.40
2018-01-22T02:18:36.762Z,6.13
2018-01-22T02:21:04.463Z,5.90
2018-01-22T02:23:32.128Z,6.10
2018-01-22T02:25:59.748Z,5.47
2018-01-22T02:28:27.445Z,6.67
2018-01-22T02:30:55.086Z,5.40
2018-01-22T02:33:22.721Z,5.07
2018-01-22T02:35:51.155Z,5.93
2018-01-22T02:38:18.860Z,4.90
2018-01-22T02:40:47.247Z,5.07
2018-01-22T02:43:14.861Z,4.67
2018-01-22T02:45:42.560Z,5.17
2018-01-22T02:48:10.940Z,5.87
2018-01-22T02:50:39.380Z,5.33
2018-01-22T02:53:07.034Z,5.60
2018-01-22T02:55:34.731Z,5.67
2018-01-22T02:58:03.142Z,5.87
2018-01-22T03:00:30.789Z,6.33
2018-01-22T03:02:59.147Z,5.67
2018-01-22T03:05:26.777Z,6.97
2018-01-22T03:07:54.448Z,6.90
2018-01-22T03:10:22.101Z,6.73
2018-01-22T03:12:49.758Z,7.10
2018-01-22T03:15:17.467Z,6.93
2018-01-22T03:17:45.885Z,7.07
2018-01-22T03:20:13.506Z,7.53
2018-01-22T03:22:41.960Z,7.73
2018-01-22T03:25:09.622Z,6.40
2018-01-22T03:27:37.321Z,6.70
2018-01-22T03:30:04.993Z,7.87
2018-01-22T03:32:32.619Z,7.93
2018-01-22T03:35:00.305Z,6.90
2018-01-22T03:37:28.695Z,7.47
2018-01-22T03:39:56.356Z,7.80
2018-01-22T03:42:24.034Z,8.03
2018-01-22T03:44:51.687Z,7.93
2018-01-22T03:47:19.361Z,7.67
2018-01-22T03:49:46.995Z,8.50
2018-01-22T03:52:15.445Z,8.73
2018-01-22T03:54:43.093Z,10.03
2018-01-22T03:57:10.759Z,8.17
2018-01-22T03:59:38.416Z,9.00
2018-01-22T04:02:06.110Z,9.10
2018-01-22T04:04:33.749Z,9.17
2018-01-22T04:07:01.378Z,8.50
2018-01-22T04:09:29.101Z,9.10
2018-01-22T04:11:56.723Z,8.70
2018-01-22T04:14:24.419Z,8.37
2018-01-22T04:16:52.817Z,9.97
2018-01-22T04:19:20.442Z,8.40
2018-01-22T04:21:48.130Z,8.90
2018-01-22T04:24:16.545Z,8.43
2018-01-22T04:26:44.203Z,9.70
2018-01-22T04:29:11.890Z,11.03
2018-01-22T04:31:39.525Z,10.03
2018-01-22T04:34:07.191Z,10.93
2018-01-22T04:36:34.851Z,9.40
2018-01-22T04:39:02.470Z,11.00
2018-01-22T04:41:30.900Z,12.13
2018-01-22T04:43:58.676Z,16.37
2018-01-22T04:46:26.365Z,12.97
2018-01-22T04:48:53.981Z,18.47
2018-01-22T04:51:21.660Z,14.80
2018-01-22T04:53:49.295Z,13.70
2018-01-22T04:56:16.942Z,16.67
2018-01-22T04:58:44.633Z,14.53
2018-01-22T05:01:12.289Z,13.13
2018-01-22T05:03:40.131Z,16.63
2018-01-22T05:06:07.961Z,15.43
2018-01-22T05:08:35.777Z,16.50
2018-01-22T05:11:03.556Z,16.00
2018-01-22T05:13:31.249Z,17.43
2018-01-22T05:15:58.877Z,15.17
2018-01-22T05:18:26.580Z,16.10
2018-01-22T05:20:54.236Z,13.70
2018-01-22T05:23:21.899Z,15.83
2018-01-22T05:25:49.580Z,17.70
2018-01-22T05:28:18.005Z,16.90
2018-01-22T05:30:45.643Z,15.83
2018-01-22T05:33:13.310Z,12.40
2018-01-22T05:35:40.979Z,14.47
2018-01-22T05:38:08.621Z,15.93
2018-01-22T05:40:37.009Z,18.20
2018-01-22T05:43:04.688Z,12.93
2018-01-22T05:45:32.330Z,12.30
2018-01-22T05:47:59.976Z,15.30
2018-01-22T05:50:28.401Z,13.07
2018-01-22T05:52:56.051Z,14.10
2018-01-22T05:55:23.715Z,14.70
2018-01-22T05:57:51.370Z,17.90
2018-01-22T06:00:19.025Z,19.27
2018-01-22T06:02:46.669Z,22.07
2018-01-22T06:05:15.089Z,19.07
2018-01-22T06:07:42.744Z,15.97
2018-01-22T06:10:10.401Z,13.93
2018-01-22T06:12:38.047Z,17.00
2018-01-22T06:15:05.710Z,14.67
2018-01-22T06:17:33.347Z,12.23
2018-01-22T06:20:01.751Z,11.90
2018-01-22T06:22:29.431Z,12.90
2018-01-22T06:24:57.075Z,14.93
2018-01-22T06:27:24.735Z,13.70
2018-01-22T06:29:52.359Z,14.67
2018-01-22T06:32:20.047Z,12.40
2018-01-22T06:34:48.492Z,13.17
2018-01-22T06:37:16.146Z,14.23
2018-01-22T06:39:43.818Z,16.17
2018-01-22T06:42:11.481Z,15.93
2018-01-22T06:44:39.097Z,15.20
2018-01-22T06:47:06.760Z,16.00
2018-01-22T06:49:34.411Z,14.10
2018-01-22T06:52:02.096Z,13.50
2018-01-22T06:54:29.818Z,14.53
2018-01-22T06:56:57.648Z,15.30
2018-01-22T06:59:25.670Z,15.23
2018-01-22T07:01:53.747Z,15.90
2018-01-22T07:04:21.432Z,14.10
2018-01-22T07:06:49.194Z,20.30
2018-01-22T07:09:16.864Z,16.10
2018-01-22T07:11:44.550Z,15.80
2018-01-22T07:14:12.174Z,15.23
2018-01-22T07:16:39.827Z,12.53
2018-01-22T07:19:07.614Z,12.40
2018-01-22T07:21:35.246Z,13.07
2018-01-22T07:24:02.862Z,15.00
2018-01-22T07:26:30.541Z,14.00
2018-01-22T07:28:58.961Z,14.20
2018-01-22T07:31:26.607Z,14.73
2018-01-22T07:33:54.337Z,16.40
2018-01-22T07:36:22.743Z,17.60
2018-01-22T07:38:50.375Z,20.53
2018-01-22T07:41:18.062Z,19.93
2018-01-22T07:43:46.509Z,18.20
2018-01-22T07:46:14.190Z,18.90
2018-01-22T07:48:42.733Z,15.27
2018-01-22T07:51:10.420Z,15.53
2018-01-22T07:53:38.161Z,18.67
2018-01-22T07:56:05.833Z,18.80
2018-01-22T07:58:33.458Z,18.73
2018-01-22T08:01:01.095Z,15.60
2018-01-22T08:03:29.627Z,15.83
2018-01-22T08:05:57.263Z,15.20
2018-01-22T08:08:24.951Z,14.60
2018-01-22T08:10:52.609Z,13.10
2018-01-22T08:13:20.465Z,15.43
2018-01-22T08:15:48.244Z,16.07
2018-01-22T08:18:15.948Z,18.90
2018-01-22T08:20:44.724Z,14.10
2018-01-22T08:23:12.762Z,13.50
2018-01-22T08:25:40.392Z,14.03
2018-01-22T08:28:08.082Z,14.43
2018-01-22T08:30:35.763Z,13.73
2018-01-22T08:33:03.426Z,13.23
2018-01-22T08:35:31.087Z,13.40
2018-01-22T08:37:58.769Z,11.43
2018-01-22T08:40:26.397Z,13.53
2018-01-22T08:42:54.055Z,12.93
2018-01-22T08:45:23.354Z,16.73
2018-01-22T08:47:51.002Z,15.10
2018-01-22T08:50:18.675Z,12.67
2018-01-22T08:52:46.322Z,12.13
2018-01-22T08:55:13.984Z,12.57
2018-01-22T08:57:41.602Z,14.30
2018-01-22T09:00:09.243Z,14.37
2018-01-22T09:02:36.900Z,14.30
2018-01-22T09:05:04.528Z,14.37
2018-01-22T09:07:32.207Z,14.90
2018-01-22T09:09:59.866Z,15.60
2018-01-22T09:12:27.538Z,13.30
2018-01-22T09:14:55.222Z,13.77
2018-01-22T09:17:22.881Z,16.03
2018-01-22T09:19:50.558Z,16.30
2018-01-22T09:22:18.987Z,18.40
2018-01-22T09:24:46.638Z,16.17
2018-01-22T09:27:14.299Z,16.50
2018-01-22T09:29:41.934Z,17.37
2018-01-22T09:32:10.384Z,16.40
2018-01-22T09:34:38.379Z,19.67
2018-01-22T09:37:06.771Z,19.77
2018-01-22T09:39:34.487Z,19.50
2018-01-22T09:42:02.114Z,18.07
2018-01-22T09:44:29.761Z,23.53
2018-01-22T09:46:58.189Z,20.93
2018-01-22T09:49:25.842Z,21.27
2018-01-22T09:51:53.502Z,19.23
2018-01-22T09:54:21.161Z,17.13
2018-01-22T09:56:48.831Z,17.57
2018-01-22T09:59:16.474Z,16.40
2018-01-22T10:01:44.107Z,24.40
2018-01-22T10:04:11.762Z,20.23
2018-01-22T10:06:40.153Z,26.30
2018-01-22T10:09:07.957Z,24.33
2018-01-22T10:11:35.594Z,40.77
2018-01-22T10:14:03.247Z,20.10
2018-01-22T10:16:30.888Z,21.50
2018-01-22T10:18:58.525Z,20.63
2018-01-22T10:21:26.179Z,20.07
2018-01-22T10:23:53.822Z,19.90
2018-01-22T10:26:21.460Z,19.00
2018-01-22T10:28:49.126Z,18.10
2018-01-22T10:31:16.789Z,18.47
2018-01-22T10:33:44.467Z,19.80
2018-01-22T10:36:12.123Z,20.33
2018-01-22T10:38:39.800Z,20.27
2018-01-22T10:41:07.483Z,22.43
2018-01-22T10:43:35.166Z,23.60
2018-01-22T10:46:03.598Z,25.20
2018-01-22T10:48:31.219Z,25.10
2018-01-22T10:50:59.665Z,23.50
2018-01-22T10:53:27.316Z,20.23
2018-01-22T10:55:55.715Z,20.90
2018-01-22T10:58:23.371Z,21.03
2018-01-22T11:00:51.058Z,20.53
2018-01-22T11:03:19.464Z,21.63
2018-01-22T11:05:47.108Z,20.60
2018-01-22T11:08:15.545Z,20.70
2018-01-22T11:10:43.199Z,22.67
2018-01-22T11:13:10.871Z,22.37
2018-01-22T11:15:44.282Z,19.90
2018-01-22T11:18:11.919Z,18.03
2018-01-22T11:20:39.561Z,19.20
2018-01-22T11:23:07.526Z,20.83
2018-01-22T11:25:35.437Z,18.40
2018-01-22T11:28:03.171Z,19.90
2018-01-22T11:30:30.785Z,23.40
2018-01-22T11:32:59.217Z,19.40
2018-01-22T11:35:26.867Z,20.17
2018-01-22T11:37:54.883Z,22.97
2018-01-22T11:40:23.272Z,25.67
2018-01-22T11:42:51.660Z,26.47
2018-01-22T11:45:20.073Z,27.57
2018-01-22T11:47:47.731Z,34.07
2018-01-22T11:50:15.389Z,49.27
2018-01-22T11:52:43.034Z,50.40
2018-01-22T11:55:10.730Z,40.70
2018-01-22T11:57:38.397Z,35.37
2018-01-22T12:00:06.035Z,36.50
2018-01-22T12:02:33.701Z,35.50
2018-01-22T12:05:01.350Z,38.50
2018-01-22T12:07:29.037Z,43.40
2018-01-22T12:09:56.687Z,48.47
2018-01-22T12:12:24.316Z,47.33
2018-01-22T12:14:52.775Z,41.67
2018-01-22T12:17:20.459Z,54.43
2018-01-22T12:19:48.869Z,43.07
2018-01-22T12:22:16.525Z,57.53
2018-01-22T12:24:44.156Z,54.57
2018-01-22T12:27:12.586Z,49.23
2018-01-22T12:29:40.243Z,44.27
2018-01-22T12:32:07.914Z,41.37
2018-01-22T12:34:35.552Z,40.83
2018-01-22T12:37:03.188Z,45.60
2018-01-22T12:39:31.109Z,34.90
2018-01-22T12:41:58.743Z,30.83
2018-01-22T12:44:26.377Z,39.90
2018-01-22T12:46:54.823Z,38.70
2018-01-22T12:49:22.499Z,30.77
2018-01-22T12:51:50.155Z,28.87
2018-01-22T12:54:17.791Z,23.20
2018-01-22T12:56:45.423Z,22.07
2018-01-22T12:59:13.086Z,21.17
2018-01-22T13:01:40.717Z,18.47
2018-01-22T13:04:09.122Z,19.83
2018-01-22T13:06:36.787Z,21.27
2018-01-22T13:09:04.479Z,22.00
2018-01-22T13:11:32.103Z,17.73
2018-01-22T13:13:59.742Z,13.90
2018-01-22T13:16:27.413Z,16.37
2018-01-22T13:18:55.832Z,15.53
2018-01-22T13:21:23.535Z,14.53
2018-01-22T13:23:51.935Z,14.80
2018-01-22T13:26:20.334Z,14.70
2018-01-22T13:28:47.985Z,15.50
2018-01-22T13:31:15.632Z,13.60
2018-01-22T13:33:44.081Z,12.97
2018-01-22T13:36:11.747Z,9.50
2018-01-22T13:38:39.393Z,11.50
2018-01-22T13:41:13.026Z,12.90
2018-01-22T13:43:41.450Z,14.77
2018-01-22T13:46:09.082Z,12.10
2018-01-22T13:48:37.526Z,6.80
2018-01-22T13:51:05.168Z,5.50
2018-01-22T13:53:32.798Z,4.60
2018-01-22T13:56:00.450Z,4.63
2018-01-22T13:58:28.868Z,4.00
2018-01-22T14:00:56.503Z,3.47
2018-01-22T14:03:24.211Z,4.50
2018-01-22T14:05:51.859Z,4.30
2018-01-22T14:08:19.491Z,5.00
2018-01-22T14:10:47.171Z,6.40
2018-01-22T14:13:14.915Z,6.23
2018-01-22T14:15:42.709Z,6.27
2018-01-22T14:18:11.992Z,5.53
2018-01-22T14:20:39.787Z,4.40
2018-01-22T14:23:08.225Z,3.40
2018-01-22T14:25:35.863Z,3.73
2018-01-22T14:28:04.414Z,5.17
2018-01-22T14:30:33.701Z,6.10
2018-01-22T14:33:02.423Z,4.47
2018-01-22T14:35:30.879Z,4.63
2018-01-22T14:37:58.522Z,4.40
2018-01-22T14:40:26.138Z,4.03
2018-01-22T14:42:54.601Z,4.40
2018-01-22T14:45:22.235Z,11.80
2018-01-22T14:47:49.870Z,5.63
2018-01-22T14:50:17.562Z,4.70
2018-01-22T14:52:46.242Z,6.10
2018-01-22T14:55:13.855Z,5.17
2018-01-22T14:57:41.491Z,4.73
2018-01-22T15:00:09.130Z,5.33
2018-01-22T15:02:36.737Z,5.90
2018-01-22T15:05:05.154Z,6.63
2018-01-22T15:07:33.828Z,15.17
2018-01-22T15:10:01.491Z,39.23
2018-01-22T15:12:29.185Z,20.27
2018-01-22T15:14:57.548Z,18.77
2018-01-22T15:17:25.189Z,24.07
2018-01-22T15:19:52.864Z,26.90
2018-01-22T15:22:20.542Z,27.10
2018-01-22T15:24:48.246Z,15.97
2018-01-22T15:27:16.708Z,14.80
2018-01-22T15:29:44.377Z,13.03
2018-01-22T15:32:13.851Z,17.37
2018-01-22T15:34:41.515Z,17.77
2018-01-22T15:37:09.309Z,14.63
2018-01-22T15:39:37.754Z,12.63
2018-01-22T15:42:05.435Z,12.80
2018-01-22T15:44:33.072Z,12.30
2018-01-22T15:47:00.744Z,11.80
2018-01-22T15:49:29.420Z,11.20
2018-01-22T15:51:59.010Z,10.10
2018-01-22T15:54:26.630Z,6.63
2018-01-22T15:56:55.069Z,6.40
2018-01-22T15:59:22.722Z,4.77
2018-01-22T16:01:50.370Z,5.00
2018-01-22T16:04:18.024Z,4.20
2018-01-22T16:06:45.709Z,25.77
2018-01-22T16:09:13.397Z,17.83
2018-01-22T16:11:41.048Z,9.77
2018-01-22T16:14:08.722Z,9.60
2018-01-22T16:16:37.371Z,5.73
2018-01-22T16:19:04.990Z,5.40
2018-01-22T16:21:34.487Z,5.67
2018-01-22T16:24:02.139Z,6.23
2018-01-22T16:26:29.860Z,5.60
2018-01-22T16:28:57.465Z,10.00
2018-01-22T16:31:25.139Z,24.10
2018-01-22T16:33:53.584Z,13.00
2018-01-22T16:36:21.276Z,12.33
2018-01-22T16:38:49.700Z,13.37
2018-01-22T16:41:17.362Z,7.13
2018-01-22T16:43:45.025Z,6.07
2018-01-22T16:46:12.719Z,6.00
2018-01-22T16:48:41.424Z,14.13
2018-01-22T16:51:09.090Z,41.80
2018-01-22T16:53:36.777Z,51.03
2018-01-22T16:56:04.487Z,45.97
2018-01-22T16:58:32.180Z,68.30
2018-01-22T17:00:59.844Z,91.00
2018-01-22T17:03:28.329Z,19.07
2018-01-22T17:05:56.775Z,108.40
2018-01-22T17:08:24.434Z,30.53
2018-01-22T17:10:52.121Z,34.20
2018-01-22T17:13:19.766Z,34.33
2018-01-22T17:15:47.654Z,24.73
2018-01-22T17:18:15.305Z,31.50
2018-01-22T17:20:43.000Z,25.60
2018-01-22T17:23:11.390Z,74.73
2018-01-22T17:25:39.868Z,29.37
2018-01-22T17:28:07.782Z,29.13
2018-01-22T17:30:36.208Z,37.13
2018-01-22T17:33:04.636Z,58.43
2018-01-22T17:35:32.278Z,44.33
2018-01-22T17:37:59.947Z,29.60
2018-01-22T17:40:27.610Z,19.50
2018-01-22T17:42:55.265Z,19.07
2018-01-22T17:45:22.901Z,20.73
2018-01-22T17:47:51.327Z,19.70
2018-01-22T17:50:19.016Z,17.80
2018-01-22T17:52:46.678Z,19.73
2018-01-22T17:55:14.391Z,18.87
2018-01-22T17:57:42.027Z,16.63
2018-01-22T18:00:10.495Z,13.97
2018-01-22T18:02:38.935Z,11.40
2018-01-22T18:05:06.587Z,12.13
2018-01-22T18:07:34.287Z,21.30
2018-01-22T18:10:01.944Z,23.87
2018-01-22T18:12:29.635Z,16.63
2018-01-22T18:14:58.182Z,14.33
2018-01-22T18:17:26.840Z,19.70
2018-01-22T18:19:54.685Z,23.73
2018-01-22T18:22:22.367Z,24.57
2018-01-22T18:24:50.070Z,20.70
2018-01-22T18:27:17.735Z,45.07
2018-01-22T18:29:46.191Z,30.73
2018-01-22T18:32:13.828Z,18.97
2018-01-22T18:34:41.648Z,39.70
2018-01-22T18:37:10.076Z,16.60
2018-01-22T18:39:37.705Z,15.47
2018-01-22T18:42:06.654Z,15.70
2018-01-22T18:44:34.287Z,22.13
2018-01-22T18:47:01.954Z,16.30
2018-01-22T18:49:29.625Z,27.33
2018-01-22T18:51:57.404Z,40.50
2018-01-22T18:54:25.031Z,34.13
2018-01-22T18:56:52.675Z,86.73
2018-01-22T18:59:21.112Z,127.23
2018-01-22T19:01:48.795Z,118.20
2018-01-22T19:04:17.258Z,48.80
2018-01-22T19:06:45.694Z,14.07
2018-01-22T19:09:13.319Z,38.03
2018-01-22T19:11:41.758Z,15.27
2018-01-22T19:14:09.419Z,115.73
2018-01-22T19:16:37.111Z,32.47
2018-01-22T19:19:04.766Z,16.10
2018-01-22T19:21:32.440Z,14.13
2018-01-22T19:24:00.121Z,15.50
2018-01-22T19:26:28.516Z,17.50
2018-01-22T19:28:56.215Z,13.60
2018-01-22T19:31:23.846Z,17.33
2018-01-22T19:33:51.624Z,17.07
2018-01-22T19:36:19.350Z,20.73
2018-01-22T19:38:47.784Z,18.87
2018-01-22T19:41:15.603Z,28.50
2018-01-22T19:43:43.273Z,17.10
2018-01-22T19:46:10.955Z,16.60
2018-01-22T19:48:38.643Z,50.57
2018-01-22T19:51:06.307Z,48.87
2018-01-22T19:53:33.996Z,32.20
2018-01-22T19:56:02.435Z,20.40
2018-01-22T19:58:30.080Z,12.60
2018-01-22T20:00:57.792Z,10.40
2018-01-22T20:03:26.209Z,9.80
2018-01-22T20:05:53.856Z,8.57
2018-01-22T20:08:22.304Z,18.30
2018-01-22T20:10:49.992Z,10.83
2018-01-22T20:13:18.455Z,9.27
2018-01-22T20:15:46.099Z,11.00
2018-01-22T20:18:13.753Z,11.27
2018-01-22T20:20:41.411Z,6.47
2018-01-22T20:23:09.095Z,7.53
2018-01-22T20:25:36.774Z,8.27
2018-01-22T20:28:05.219Z,13.90
2018-01-22T20:30:32.908Z,19.30
2018-01-22T20:33:00.593Z,15.23
2018-01-22T20:35:29.042Z,31.33
2018-01-22T20:37:56.716Z,9.50
2018-01-22T20:40:24.357Z,72.07
2018-01-22T20:42:52.037Z,36.93
2018-01-22T20:45:19.711Z,10.73
2018-01-22T20:47:48.149Z,11.07
2018-01-22T20:50:15.803Z,8.37
2018-01-22T20:52:43.511Z,6.77
2018-01-22T20:55:11.161Z,29.43
2018-01-22T20:57:38.896Z,12.03
2018-01-22T21:00:06.569Z,9.73
2018-01-22T21:02:34.220Z,10.83
2018-01-22T21:05:01.894Z,23.50
2018-01-22T21:07:29.579Z,55.57
2018-01-22T21:09:57.240Z,16.20
2018-01-22T21:12:25.651Z,42.53
2018-01-22T21:14:53.368Z,96.03
2018-01-22T21:17:21.030Z,17.97
2018-01-22T21:19:48.695Z,24.17
2018-01-22T21:22:16.362Z,24.30
2018-01-22T21:24:44.049Z,46.63
2018-01-22T21:27:12.477Z,112.67
2018-01-22T21:29:40.155Z,111.90
2018-01-22T21:32:07.851Z,41.80
2018-01-22T21:34:36.257Z,100.50
2018-01-22T21:37:03.920Z,47.20
2018-01-22T21:39:31.628Z,143.03
2018-01-22T21:41:59.271Z,43.27
2018-01-22T21:44:26.927Z,76.03
2018-01-22T21:46:54.588Z,109.30
2018-01-22T21:49:22.297Z,116.53
2018-01-22T21:51:50.711Z,145.30
2018-01-22T21:54:18.356Z,102.43
2018-01-22T21:56:46.307Z,154.33
2018-01-22T21:59:13.992Z,93.67
2018-01-22T22:01:41.665Z,20.97
2018-01-22T22:04:09.369Z,21.37
2018-01-22T22:06:37.079Z,13.33
2018-01-22T22:09:04.728Z,34.33
2018-01-22T22:11:33.197Z,24.57
2018-01-22T22:14:01.599Z,16.87
2018-01-22T22:16:29.294Z,10.17
2018-01-22T22:18:56.943Z,13.37
2018-01-22T22:21:24.632Z,11.70
2018-01-22T22:23:52.295Z,11.53
2018-01-22T22:26:19.965Z,11.20
2018-01-22T22:28:47.631Z,12.70
2018-01-22T22:31:15.275Z,11.50
2018-01-22T22:33:42.991Z,11.20
2018-01-22T22:36:10.673Z,10.23
2018-01-22T22:38:38.358Z,9.17
2018-01-22T22:41:06.051Z,9.57
2018-01-22T22:43:34.509Z,11.03
2018-01-22T22:46:02.182Z,9.77
2018-01-22T22:48:29.846Z,10.10
2018-01-22T22:50:57.512Z,9.10
2018-01-22T22:53:25.159Z,8.93
2018-01-22T22:55:52.839Z,9.30
2018-01-22T22:58:21.274Z,9.50
2018-01-22T23:00:48.915Z,9.50
2018-01-22T23:03:16.581Z,7.20
2018-01-22T23:05:44.210Z,7.60
2018-01-22T23:08:12.647Z,7.60
2018-01-22T23:10:40.280Z,7.17
2018-01-22T23:13:07.905Z,7.63
2018-01-22T23:15:35.583Z,7.87
2018-01-22T23:18:04.041Z,7.40
2018-01-22T23:20:31.707Z,7.57
2018-01-22T23:22:59.365Z,7.13
2018-01-22T23:25:27.026Z,6.80
2018-01-22T23:27:54.692Z,5.90
2018-01-22T23:30:22.351Z,6.37
2018-01-22T23:32:50.019Z,6.40
2018-01-22T23:35:17.658Z,6.87
2018-01-22T23:37:46.174Z,7.30
2018-01-22T23:40:14.610Z,7.50
2018-01-22T23:42:42.244Z,6.70
2018-01-22T23:45:09.921Z,6.70
2018-01-22T23:47:37.631Z,7.43
2018-01-22T23:50:05.274Z,7.70
2018-01-22T23:52:32.920Z,7.30
2018-01-22T23:55:00.896Z,7.60
2018-01-22T23:57:28.552Z,7.60
2018-01-22T23:59:56.220Z,8.23
